Time;durP1;ratioP1;P1;durP2;ratioP2;P2;SDS_P1;SDS_P2;PMS_P1;PMS_P2;Temp;Humidity;BMP_temperature;BMP_pressure;BME280_temperature;BME280_humidity;BME280_pressure;Samples;Min_cycle;Max_cycle;Signal;HPM_P1;HPM_P2
2023/10/06 00:00:19;;;;;;;7.75;1.90;;;;;;;;;;4981822;28;20054;-67
2023/10/06 00:02:48;;;;;;;6.30;1.95;;;;;;;;;;5001757;28;20038;-67
2023/10/06 00:05:15;;;;;;;7.25;2.08;;;;;;;;;;4997011;28;20078;-66
2023/10/06 00:07:42;;;;;;;6.90;2.35;;;;;;;;;;5002495;28;20047;-67
2023/10/06 00:10:17;;;;;;;7.75;2.10;;;;;;;;;;4991422;28;20489;-67
2023/10/06 00:12:48;;;;;;;7.95;1.98;;;;;;;;;;4996137;28;20125;-66
2023/10/06 00:15:16;;;;;;;8.98;2.20;;;;;;;;;;4996659;28;20058;-67
2023/10/06 00:17:48;;;;;;;8.02;2.10;;;;;;;;;;4993449;28;20363;-67
2023/10/06 00:20:26;;;;;;;9.25;2.25;;;;;;;;;;4977579;28;20061;-67
2023/10/06 00:23:01;;;;;;;10.63;2.08;;;;;;;;;;4999054;28;20639;-67
2023/10/06 00:25:29;;;;;;;10.20;2.75;;;;;;;;;;4996884;28;20366;-67
2023/10/06 00:27:56;;;;;;;6.88;2.25;;;;;;;;;;4995764;28;21372;-67
2023/10/06 00:30:25;;;;;;;7.88;2.10;;;;;;;;;;4992275;28;20073;-67
2023/10/06 00:32:54;;;;;;;7.45;2.47;;;;;;;;;;4998806;28;20050;-66
2023/10/06 00:35:30;;;;;;;9.90;2.25;;;;;;;;;;4998373;28;20049;-67
2023/10/06 00:38:12;;;;;;;7.85;2.40;;;;;;;;;;4993631;28;20037;-67
2023/10/06 00:40:40;;;;;;;13.07;2.92;;;;;;;;;;4972445;28;20054;-67
2023/10/06 00:43:08;;;;;;;10.10;2.33;;;;;;;;;;4997643;28;20465;-67
2023/10/06 00:45:39;;;;;;;6.07;2.00;;;;;;;;;;4998269;28;20074;-67
2023/10/06 00:48:14;;;;;;;8.57;2.30;;;;;;;;;;4974502;28;20054;-66
2023/10/06 00:50:43;;;;;;;13.27;2.85;;;;;;;;;;4979199;28;20054;-66
2023/10/06 00:53:13;;;;;;;7.60;2.05;;;;;;;;;;4992827;28;20046;-67
2023/10/06 00:55:41;;;;;;;10.70;2.20;;;;;;;;;;4999566;28;20054;-67
2023/10/06 00:58:11;;;;;;;10.07;2.53;;;;;;;;;;4990585;28;20042;-68
2023/10/06 01:00:39;;;;;;;8.02;2.15;;;;;;;;;;4992659;28;20042;-67
2023/10/06 01:03:14;;;;;;;10.35;2.45;;;;;;;;;;4997121;28;20058;-67
2023/10/06 01:05:46;;;;;;;7.40;2.70;;;;;;;;;;4975881;28;20553;-66
2023/10/06 01:08:15;;;;;;;11.35;2.63;;;;;;;;;;4993887;28;20081;-67
2023/10/06 01:10:43;;;;;;;6.70;2.20;;;;;;;;;;4995410;28;20058;-67
2023/10/06 01:13:14;;;;;;;7.65;2.67;;;;;;;;;;4996680;28;20049;-67
2023/10/06 01:15:48;;;;;;;8.35;2.72;;;;;;;;;;4994993;28;20054;-67
2023/10/06 01:18:23;;;;;;;8.10;2.20;;;;;;;;;;4976083;28;20109;-67
2023/10/06 01:20:52;;;;;;;7.55;2.38;;;;;;;;;;4999686;28;20136;-66
2023/10/06 01:23:21;;;;;;;8.73;2.45;;;;;;;;;;4978338;28;20069;-66
2023/10/06 01:25:54;;;;;;;10.40;2.45;;;;;;;;;;4997084;28;20054;-67
2023/10/06 01:28:23;;;;;;;8.27;2.55;;;;;;;;;;4992251;28;20388;-67
2023/10/06 01:30:51;;;;;;;7.00;2.58;;;;;;;;;;4999543;28;20081;-67
2023/10/06 01:33:18;;;;;;;13.90;3.08;;;;;;;;;;4996014;28;20129;-66
2023/10/06 01:35:46;;;;;;;8.43;2.25;;;;;;;;;;4996193;28;20056;-68
2023/10/06 01:38:22;;;;;;;10.93;2.50;;;;;;;;;;4993331;28;20054;-67
2023/10/06 01:40:52;;;;;;;10.38;2.47;;;;;;;;;;4991916;28;20054;-68
2023/10/06 01:43:23;;;;;;;7.82;2.42;;;;;;;;;;4992721;28;20060;-67
2023/10/06 01:45:51;;;;;;;7.63;2.83;;;;;;;;;;4987555;28;20054;-68
2023/10/06 01:48:29;;;;;;;9.63;2.58;;;;;;;;;;4973819;28;20062;-66
2023/10/06 01:50:57;;;;;;;13.65;3.10;;;;;;;;;;4991513;28;20054;-66
2023/10/06 01:53:32;;;;;;;11.32;2.70;;;;;;;;;;4988195;28;20050;-67
2023/10/06 01:56:06;;;;;;;9.05;2.50;;;;;;;;;;4996526;28;20064;-67
2023/10/06 01:58:33;;;;;;;9.13;2.63;;;;;;;;;;5000620;28;20104;-66
2023/10/06 02:01:01;;;;;;;13.85;2.75;;;;;;;;;;4992623;28;20058;-67
2023/10/06 02:03:28;;;;;;;7.30;2.47;;;;;;;;;;4976828;28;20054;-66
2023/10/06 02:05:55;;;;;;;7.97;2.50;;;;;;;;;;4994009;28;20050;-68
2023/10/06 02:08:23;;;;;;;8.32;2.10;;;;;;;;;;4999198;28;20489;-67
2023/10/06 02:10:51;;;;;;;4.95;1.83;;;;;;;;;;4995048;28;20113;-66
2023/10/06 02:13:21;;;;;;;11.55;2.30;;;;;;;;;;4980417;28;20410;-67
2023/10/06 02:15:56;;;;;;;6.88;2.13;;;;;;;;;;4977275;28;20057;-66
2023/10/06 02:18:29;;;;;;;12.52;1.90;;;;;;;;;;5000301;28;20073;-67
2023/10/06 02:21:00;;;;;;;10.32;2.10;;;;;;;;;;5000549;28;20100;-67
2023/10/06 02:23:29;;;;;;;8.30;1.83;;;;;;;;;;4971996;28;20138;-67
2023/10/06 02:25:57;;;;;;;5.40;1.67;;;;;;;;;;5002669;28;20053;-68
2023/10/06 02:28:25;;;;;;;9.00;1.80;;;;;;;;;;4974688;28;20038;-67
2023/10/06 02:30:55;;;;;;;11.10;2.00;;;;;;;;;;4986731;28;20134;-67
2023/10/06 02:33:24;;;;;;;6.20;1.80;;;;;;;;;;4996093;28;20054;-67
2023/10/06 02:35:55;;;;;;;11.00;1.67;;;;;;;;;;4998329;28;20054;-68
2023/10/06 02:38:22;;;;;;;6.68;1.58;;;;;;;;;;4984884;28;20409;-66
2023/10/06 02:40:50;;;;;;;9.05;1.95;;;;;;;;;;4989334;28;20061;-67
2023/10/06 02:43:20;;;;;;;8.10;1.77;;;;;;;;;;4993715;28;20509;-67
2023/10/06 02:45:50;;;;;;;10.73;2.08;;;;;;;;;;4991115;28;20054;-68
2023/10/06 02:48:22;;;;;;;12.38;2.03;;;;;;;;;;4991342;28;20137;-67
2023/10/06 02:50:55;;;;;;;8.52;1.58;;;;;;;;;;4973990;28;20059;-70
2023/10/06 02:53:23;;;;;;;11.02;2.05;;;;;;;;;;4994336;28;20054;-67
2023/10/06 02:55:55;;;;;;;5.53;1.77;;;;;;;;;;4989596;28;20051;-67
2023/10/06 02:58:27;;;;;;;8.25;2.00;;;;;;;;;;4998673;28;20072;-67
2023/10/06 03:00:56;;;;;;;11.00;1.92;;;;;;;;;;4991482;28;20046;-67
2023/10/06 03:03:27;;;;;;;7.40;1.88;;;;;;;;;;4995151;28;20053;-67
2023/10/06 03:05:56;;;;;;;7.05;1.27;;;;;;;;;;4983462;28;20065;-68
2023/10/06 03:08:27;;;;;;;9.07;1.73;;;;;;;;;;4996514;28;20125;-67
2023/10/06 03:10:55;;;;;;;6.53;1.90;;;;;;;;;;5006409;28;20050;-67
2023/10/06 03:13:32;;;;;;;9.45;2.20;;;;;;;;;;5001008;28;20047;-68
2023/10/06 03:16:00;;;;;;;12.32;2.17;;;;;;;;;;4997670;28;20056;-67
2023/10/06 03:18:28;;;;;;;8.68;1.85;;;;;;;;;;4983366;28;20061;-67
2023/10/06 03:21:01;;;;;;;6.72;2.03;;;;;;;;;;4985864;28;20504;-67
2023/10/06 03:23:31;;;;;;;8.75;2.20;;;;;;;;;;4990884;28;20046;-67
2023/10/06 03:26:03;;;;;;;9.70;1.80;;;;;;;;;;4998423;28;20489;-68
2023/10/06 03:28:32;;;;;;;8.80;2.10;;;;;;;;;;4991812;28;20042;-67
2023/10/06 03:31:21;;;;;;;11.38;1.98;;;;;;;;;;4989705;28;20077;-67
2023/10/06 03:33:48;;;;;;;8.70;2.35;;;;;;;;;;4990593;28;20073;-68
2023/10/06 03:36:16;;;;;;;8.40;1.90;;;;;;;;;;4989566;28;20066;-67
2023/10/06 03:38:52;;;;;;;8.05;1.90;;;;;;;;;;4991798;28;20082;-66
2023/10/06 03:41:26;;;;;;;12.55;2.35;;;;;;;;;;4996680;28;20061;-66
2023/10/06 03:43:55;;;;;;;7.15;1.60;;;;;;;;;;4990615;28;20070;-66
2023/10/06 03:46:24;;;;;;;15.75;2.22;;;;;;;;;;4996308;28;20051;-64
2023/10/06 03:48:51;;;;;;;11.27;2.60;;;;;;;;;;4988208;28;20050;-65
2023/10/06 03:51:18;;;;;;;11.30;1.98;;;;;;;;;;4991156;28;20049;-65
2023/10/06 03:53:47;;;;;;;13.88;2.25;;;;;;;;;;4990058;28;20062;-67
2023/10/06 03:56:16;;;;;;;10.68;2.42;;;;;;;;;;4996041;28;20056;-69
2023/10/06 03:58:43;;;;;;;14.65;2.20;;;;;;;;;;4996552;28;20062;-67
2023/10/06 04:01:11;;;;;;;11.80;2.50;;;;;;;;;;4999000;28;20053;-68
2023/10/06 04:03:40;;;;;;;8.98;2.08;;;;;;;;;;4999808;28;20077;-68
2023/10/06 04:06:12;;;;;;;14.25;2.83;;;;;;;;;;4992607;28;20050;-68
2023/10/06 04:08:44;;;;;;;14.25;2.90;;;;;;;;;;4994770;28;20104;-68
2023/10/06 04:11:14;;;;;;;6.47;2.30;;;;;;;;;;4998857;28;20050;-67
2023/10/06 04:13:41;;;;;;;12.90;3.47;;;;;;;;;;4995358;28;20074;-69
2023/10/06 04:16:08;;;;;;;17.08;2.92;;;;;;;;;;5000700;28;20493;-68
2023/10/06 04:18:36;;;;;;;15.43;2.70;;;;;;;;;;5002805;28;20133;-68
2023/10/06 04:21:04;;;;;;;12.23;3.35;;;;;;;;;;5002898;28;20053;-69
2023/10/06 04:23:31;;;;;;;12.82;3.00;;;;;;;;;;5002667;28;20129;-68
2023/10/06 04:25:59;;;;;;;9.98;2.92;;;;;;;;;;4990458;28;20055;-68
2023/10/06 04:28:27;;;;;;;13.45;2.72;;;;;;;;;;4997041;28;20563;-68
2023/10/06 04:30:58;;;;;;;12.20;3.13;;;;;;;;;;4992772;28;20081;-69
2023/10/06 04:33:28;;;;;;;13.38;3.08;;;;;;;;;;4996324;28;20101;-67
2023/10/06 04:35:56;;;;;;;11.68;2.97;;;;;;;;;;4976686;28;20058;-68
2023/10/06 04:38:29;;;;;;;15.88;3.35;;;;;;;;;;4995673;28;20046;-69
2023/10/06 04:40:56;;;;;;;14.93;3.27;;;;;;;;;;4995946;28;20053;-67
2023/10/06 04:43:24;;;;;;;17.42;4.63;;;;;;;;;;4994880;28;20071;-67
2023/10/06 04:45:51;;;;;;;17.20;4.15;;;;;;;;;;4995523;28;20383;-68
2023/10/06 04:48:19;;;;;;;11.15;3.80;;;;;;;;;;5000618;28;20161;-67
2023/10/06 04:50:50;;;;;;;15.65;4.55;;;;;;;;;;4996627;28;20042;-68
2023/10/06 04:53:17;;;;;;;20.38;4.38;;;;;;;;;;4994173;28;20524;-68
2023/10/06 04:55:46;;;;;;;20.30;4.40;;;;;;;;;;4998567;28;20065;-68
2023/10/06 04:58:14;;;;;;;12.90;4.07;;;;;;;;;;4997529;28;20485;-67
2023/10/06 05:00:41;;;;;;;14.00;4.80;;;;;;;;;;4971843;28;20389;-68
2023/10/06 05:03:10;;;;;;;14.75;4.65;;;;;;;;;;4993798;28;20477;-67
2023/10/06 05:05:38;;;;;;;14.23;4.65;;;;;;;;;;4990736;28;20047;-67
2023/10/06 05:08:09;;;;;;;11.63;4.60;;;;;;;;;;4984752;28;20098;-68
2023/10/06 05:10:37;;;;;;;17.83;4.80;;;;;;;;;;4982791;28;20053;-67
2023/10/06 05:13:06;;;;;;;16.33;4.95;;;;;;;;;;4991089;28;20560;-66
2023/10/06 05:15:34;;;;;;;18.92;5.07;;;;;;;;;;4992364;28;20052;-66
2023/10/06 05:18:03;;;;;;;9.43;4.45;;;;;;;;;;4986190;28;20046;-66
2023/10/06 05:20:30;;;;;;;16.15;4.50;;;;;;;;;;4993364;28;20063;-65
2023/10/06 05:23:02;;;;;;;12.07;3.85;;;;;;;;;;4993067;28;20049;-66
2023/10/06 05:25:29;;;;;;;22.15;4.70;;;;;;;;;;4997483;28;20048;-66
2023/10/06 05:27:59;;;;;;;13.80;4.18;;;;;;;;;;4995834;28;20131;-66
2023/10/06 05:30:28;;;;;;;16.65;4.28;;;;;;;;;;4993787;28;20051;-65
2023/10/06 05:32:58;;;;;;;16.00;4.28;;;;;;;;;;4977819;28;20057;-67
2023/10/06 05:35:25;;;;;;;15.63;4.53;;;;;;;;;;4988001;28;20055;-66
2023/10/06 05:37:53;;;;;;;17.15;3.85;;;;;;;;;;4992372;28;20077;-67
2023/10/06 05:40:20;;;;;;;13.50;3.70;;;;;;;;;;4994272;28;20062;-66
2023/10/06 05:42:49;;;;;;;11.65;4.10;;;;;;;;;;4992595;28;20493;-65
2023/10/06 05:45:18;;;;;;;15.77;5.05;;;;;;;;;;5000245;28;20081;-65
2023/10/06 05:47:48;;;;;;;18.13;4.32;;;;;;;;;;4974541;28;20062;-64
2023/10/06 05:50:27;;;;;;;13.25;3.97;;;;;;;;;;4994818;28;20516;-64
2023/10/06 05:52:59;;;;;;;16.33;3.95;;;;;;;;;;4979332;28;20504;-65
2023/10/06 05:55:33;;;;;;;18.90;3.78;;;;;;;;;;5000989;28;20058;-66
2023/10/06 05:58:01;;;;;;;13.18;3.78;;;;;;;;;;5003314;28;20050;-64
2023/10/06 06:00:30;;;;;;;16.67;4.25;;;;;;;;;;4992119;28;20069;-65
2023/10/06 06:02:59;;;;;;;14.15;3.75;;;;;;;;;;4997071;28;20046;-65
2023/10/06 06:05:29;;;;;;;17.90;4.07;;;;;;;;;;4985520;28;20101;-66
2023/10/06 06:07:59;;;;;;;24.75;4.00;;;;;;;;;;4988378;28;20046;-65
2023/10/06 06:10:28;;;;;;;17.85;3.78;;;;;;;;;;4989205;28;20065;-65
2023/10/06 06:12:56;;;;;;;15.02;3.67;;;;;;;;;;4991570;28;20051;-67
2023/10/06 06:15:25;;;;;;;18.52;3.97;;;;;;;;;;4991568;28;20405;-65
2023/10/06 06:17:52;;;;;;;18.00;4.13;;;;;;;;;;4994183;28;20053;-65
2023/10/06 06:20:22;;;;;;;17.00;3.63;;;;;;;;;;4998272;28;20070;-64
2023/10/06 06:22:55;;;;;;;14.77;4.03;;;;;;;;;;4993505;28;20050;-65
2023/10/06 06:25:22;;;;;;;20.02;4.03;;;;;;;;;;4990165;28;20049;-64
2023/10/06 06:27:50;;;;;;;16.95;4.47;;;;;;;;;;4990355;28;20057;-66
2023/10/06 06:30:18;;;;;;;12.73;4.28;;;;;;;;;;4992885;28;20066;-65
2023/10/06 06:32:48;;;;;;;12.25;4.07;;;;;;;;;;4979897;28;20109;-66
2023/10/06 06:35:16;;;;;;;19.92;5.30;;;;;;;;;;4998452;28;20045;-65
2023/10/06 06:37:45;;;;;;;17.40;4.43;;;;;;;;;;4991928;28;20046;-65
2023/10/06 06:40:13;;;;;;;18.30;4.13;;;;;;;;;;5001822;28;20046;-64
2023/10/06 06:42:41;;;;;;;11.93;4.15;;;;;;;;;;4994894;28;20058;-65
2023/10/06 06:45:13;;;;;;;15.30;4.30;;;;;;;;;;4983161;28;20515;-66
2023/10/06 06:47:41;;;;;;;19.90;4.25;;;;;;;;;;4997452;28;20060;-66
2023/10/06 06:50:09;;;;;;;18.45;4.43;;;;;;;;;;4993834;28;20038;-64
2023/10/06 06:52:38;;;;;;;19.95;4.43;;;;;;;;;;4994582;28;20058;-64
2023/10/06 06:55:12;;;;;;;9.85;4.00;;;;;;;;;;4993193;28;20124;-63
2023/10/06 06:57:41;;;;;;;14.18;4.18;;;;;;;;;;4980476;28;20050;-63
2023/10/06 07:00:15;;;;;;;16.38;4.18;;;;;;;;;;4990975;28;20772;-66
2023/10/06 07:02:42;;;;;;;18.50;4.07;;;;;;;;;;4995568;28;20078;-67
2023/10/06 07:05:11;;;;;;;21.10;4.35;;;;;;;;;;4995844;28;20054;-68
2023/10/06 07:07:40;;;;;;;21.95;4.35;;;;;;;;;;4974260;28;20058;-68
2023/10/06 07:10:11;;;;;;;22.60;4.03;;;;;;;;;;4994836;28;20057;-67
2023/10/06 07:12:38;;;;;;;17.33;4.05;;;;;;;;;;4989795;28;20054;-66
2023/10/06 07:15:14;;;;;;;14.52;3.97;;;;;;;;;;4990362;28;20069;-66
2023/10/06 07:17:42;;;;;;;18.45;4.25;;;;;;;;;;4996309;28;20049;-66
2023/10/06 07:20:14;;;;;;;22.73;4.28;;;;;;;;;;4989518;28;20465;-65
2023/10/06 07:22:41;;;;;;;15.68;4.10;;;;;;;;;;4998974;28;20052;-65
2023/10/06 07:25:11;;;;;;;20.33;4.30;;;;;;;;;;4987879;28;20057;-66
2023/10/06 07:27:39;;;;;;;15.35;3.80;;;;;;;;;;4996698;28;20073;-65
2023/10/06 07:30:10;;;;;;;19.77;4.10;;;;;;;;;;4995372;28;20061;-65
2023/10/06 07:32:40;;;;;;;15.15;4.20;;;;;;;;;;4991901;28;20046;-65
2023/10/06 07:35:08;;;;;;;11.55;3.70;;;;;;;;;;4995855;28;20130;-65
2023/10/06 07:37:37;;;;;;;14.98;4.18;;;;;;;;;;4996485;28;20052;-65
2023/10/06 07:40:05;;;;;;;14.50;4.30;;;;;;;;;;4996264;28;20132;-65
2023/10/06 07:42:34;;;;;;;21.90;4.40;;;;;;;;;;4992411;28;20050;-65
2023/10/06 07:45:05;;;;;;;22.42;4.35;;;;;;;;;;4995634;28;20082;-65
2023/10/06 07:47:34;;;;;;;20.73;3.78;;;;;;;;;;4996307;28;20050;-64
2023/10/06 07:50:02;;;;;;;23.73;4.95;;;;;;;;;;4998240;28;20066;-64
2023/10/06 07:52:30;;;;;;;19.48;4.50;;;;;;;;;;4999223;28;20061;-65
2023/10/06 07:54:57;;;;;;;19.85;4.15;;;;;;;;;;4999753;28;20133;-64
2023/10/06 07:57:24;;;;;;;20.27;4.25;;;;;;;;;;4999220;28;20050;-64
2023/10/06 07:59:53;;;;;;;17.73;4.00;;;;;;;;;;5002876;28;20516;-65
2023/10/06 08:02:20;;;;;;;23.17;4.35;;;;;;;;;;4997110;28;20529;-64
2023/10/06 08:04:47;;;;;;;14.57;3.85;;;;;;;;;;5005483;28;20069;-67
2023/10/06 08:07:15;;;;;;;18.15;4.28;;;;;;;;;;5001650;28;20150;-64
2023/10/06 08:09:42;;;;;;;19.63;4.05;;;;;;;;;;4982314;28;20058;-64
2023/10/06 08:12:09;;;;;;;17.00;3.55;;;;;;;;;;5004920;28;20060;-63
2023/10/06 08:14:37;;;;;;;16.65;4.07;;;;;;;;;;4994241;28;20070;-64
2023/10/06 08:17:06;;;;;;;17.83;4.10;;;;;;;;;;5002856;28;20056;-63
2023/10/06 08:19:34;;;;;;;16.85;3.47;;;;;;;;;;5000240;28;20460;-64
2023/10/06 08:22:01;;;;;;;21.67;3.95;;;;;;;;;;4995505;28;20077;-64
2023/10/06 08:24:29;;;;;;;25.55;4.35;;;;;;;;;;5000374;28;20054;-63
2023/10/06 08:26:57;;;;;;;13.48;3.25;;;;;;;;;;4977198;28;20699;-63
2023/10/06 08:29:24;;;;;;;17.33;3.25;;;;;;;;;;4995144;28;20046;-64
2023/10/06 08:31:53;;;;;;;17.13;3.03;;;;;;;;;;4992808;28;20414;-63
2023/10/06 08:34:21;;;;;;;16.23;3.78;;;;;;;;;;4996762;28;20057;-63
2023/10/06 08:36:49;;;;;;;20.60;3.42;;;;;;;;;;4994316;28;20046;-63
2023/10/06 08:39:17;;;;;;;14.45;3.03;;;;;;;;;;4993237;28;20485;-63
2023/10/06 08:41:45;;;;;;;13.75;3.25;;;;;;;;;;4994204;28;20050;-66
2023/10/06 08:44:13;;;;;;;15.35;2.92;;;;;;;;;;4996158;28;20073;-63
2023/10/06 08:46:44;;;;;;;16.75;3.05;;;;;;;;;;4996365;28;20049;-63
2023/10/06 08:49:12;;;;;;;19.92;3.03;;;;;;;;;;4998322;28;20050;-64
2023/10/06 08:51:42;;;;;;;14.07;2.78;;;;;;;;;;4993649;28;20050;-63
2023/10/06 08:54:13;;;;;;;18.20;3.22;;;;;;;;;;4995321;28;20067;-64
2023/10/06 08:56:40;;;;;;;15.50;2.40;;;;;;;;;;4999335;28;20042;-65
2023/10/06 08:59:07;;;;;;;23.05;3.47;;;;;;;;;;4992744;28;20405;-63
2023/10/06 09:01:36;;;;;;;13.52;2.33;;;;;;;;;;5004780;28;20049;-67
2023/10/06 09:04:04;;;;;;;19.10;3.20;;;;;;;;;;4997625;28;20485;-64
2023/10/06 09:06:31;;;;;;;9.60;1.90;;;;;;;;;;4999108;28;20049;-63
2023/10/06 09:09:01;;;;;;;15.95;2.38;;;;;;;;;;4995520;28;20640;-63
2023/10/06 09:11:41;;;;;;;14.25;2.90;;;;;;;;;;4990581;28;20042;-64
2023/10/06 09:14:10;;;;;;;15.73;1.98;;;;;;;;;;4991394;28;20108;-64
2023/10/06 09:16:57;;;;;;;14.57;2.63;;;;;;;;;;4992480;28;20189;-64
2023/10/06 09:19:24;;;;;;;13.75;2.72;;;;;;;;;;5004498;28;20049;-64
2023/10/06 09:22:05;;;;;;;15.15;2.10;;;;;;;;;;4992704;28;20502;-65
2023/10/06 09:24:34;;;;;;;12.93;3.38;;;;;;;;;;4994145;28;20054;-64
2023/10/06 09:27:02;;;;;;;21.33;2.53;;;;;;;;;;5001915;28;20473;-66
2023/10/06 09:29:34;;;;;;;14.77;2.03;;;;;;;;;;4997508;28;20050;-64
2023/10/06 09:32:04;;;;;;;10.85;2.28;;;;;;;;;;4986169;28;20109;-65
2023/10/06 09:34:32;;;;;;;16.63;2.75;;;;;;;;;;4996267;28;20125;-64
2023/10/06 09:37:18;;;;;;;18.58;2.25;;;;;;;;;;4997943;28;20493;-65
2023/10/06 09:39:56;;;;;;;15.80;2.17;;;;;;;;;;4990420;28;20580;-64
2023/10/06 09:42:25;;;;;;;10.15;1.90;;;;;;;;;;4995963;28;20053;-64
2023/10/06 09:44:55;;;;;;;9.20;2.20;;;;;;;;;;4969653;28;20070;-65
2023/10/06 09:47:22;;;;;;;11.43;2.30;;;;;;;;;;4983905;28;20077;-65
2023/10/06 09:49:50;;;;;;;15.75;1.98;;;;;;;;;;4998178;28;20057;-64
2023/10/06 09:52:19;;;;;;;13.15;2.53;;;;;;;;;;4992151;28;20050;-65
2023/10/06 09:54:49;;;;;;;14.50;2.13;;;;;;;;;;4998140;28;20449;-65
2023/10/06 09:57:16;;;;;;;11.13;2.03;;;;;;;;;;4975740;28;20132;-64
2023/10/06 09:59:43;;;;;;;9.95;2.20;;;;;;;;;;5000666;28;20046;-64
2023/10/06 10:02:12;;;;;;;12.90;2.03;;;;;;;;;;4996265;28;20460;-64
2023/10/06 10:04:40;;;;;;;14.10;2.55;;;;;;;;;;4993853;28;20117;-64
2023/10/06 10:07:09;;;;;;;10.52;2.05;;;;;;;;;;4992057;28;20057;-65
2023/10/06 10:09:39;;;;;;;11.82;2.10;;;;;;;;;;4992763;28;20042;-65
2023/10/06 10:12:16;;;;;;;14.30;2.30;;;;;;;;;;4993515;28;20046;-65
2023/10/06 10:14:50;;;;;;;8.90;2.20;;;;;;;;;;4992657;28;20074;-65
2023/10/06 10:17:23;;;;;;;12.57;2.25;;;;;;;;;;4996243;28;20096;-65
2023/10/06 10:19:53;;;;;;;11.52;2.28;;;;;;;;;;4994986;28;20117;-64
2023/10/06 10:22:21;;;;;;;14.07;2.38;;;;;;;;;;4994355;28;20052;-65
2023/10/06 10:24:48;;;;;;;15.95;2.25;;;;;;;;;;4992654;28;20054;-65
2023/10/06 10:27:20;;;;;;;12.23;2.20;;;;;;;;;;4993783;28;20417;-64
2023/10/06 10:29:47;;;;;;;12.68;2.58;;;;;;;;;;4990405;28;20065;-65
2023/10/06 10:32:15;;;;;;;12.90;2.25;;;;;;;;;;4986755;28;20050;-65
2023/10/06 10:35:01;;;;;;;14.48;2.10;;;;;;;;;;4988538;28;20503;-65
2023/10/06 10:37:28;;;;;;;13.20;2.60;;;;;;;;;;4994036;28;20050;-65
2023/10/06 10:39:56;;;;;;;12.43;1.98;;;;;;;;;;4991128;28;20737;-65
2023/10/06 10:42:37;;;;;;;12.27;2.20;;;;;;;;;;4994509;28;20051;-65
2023/10/06 10:45:23;;;;;;;12.55;2.38;;;;;;;;;;4994157;28;20050;-67
2023/10/06 10:47:51;;;;;;;10.82;2.67;;;;;;;;;;4992526;28;20046;-64
2023/10/06 10:50:18;;;;;;;16.50;2.22;;;;;;;;;;4992259;28;20050;-66
2023/10/06 10:52:48;;;;;;;10.85;2.28;;;;;;;;;;4994232;28;20144;-66
2023/10/06 10:55:16;;;;;;;14.77;2.97;;;;;;;;;;4993602;28;20046;-65
2023/10/06 10:57:46;;;;;;;11.73;2.00;;;;;;;;;;4996410;28;20552;-65
2023/10/06 11:00:14;;;;;;;14.77;2.22;;;;;;;;;;4997242;28;20045;-65
2023/10/06 11:02:46;;;;;;;10.38;2.35;;;;;;;;;;4996705;28;20512;-66
2023/10/06 11:05:14;;;;;;;10.25;2.00;;;;;;;;;;4995506;28;20062;-67
2023/10/06 11:07:43;;;;;;;9.38;2.00;;;;;;;;;;4988584;28;20057;-64
2023/10/06 11:10:16;;;;;;;13.45;2.30;;;;;;;;;;5007151;28;20125;-65
2023/10/06 11:12:45;;;;;;;7.43;1.95;;;;;;;;;;4998640;28;20050;-64
2023/10/06 11:15:15;;;;;;;13.88;2.30;;;;;;;;;;5002928;28;20527;-66
2023/10/06 11:17:43;;;;;;;15.00;2.92;;;;;;;;;;5006490;28;20606;-66
2023/10/06 11:20:15;;;;;;;10.30;1.77;;;;;;;;;;5011450;28;20396;-65
2023/10/06 11:22:59;;;;;;;14.80;2.30;;;;;;;;;;4998030;28;20057;-68
2023/10/06 11:25:28;;;;;;;10.95;2.15;;;;;;;;;;4998815;28;20055;-66
2023/10/06 11:28:03;;;;;;;13.82;3.25;;;;;;;;;;5003270;28;20057;-66
2023/10/06 11:30:32;;;;;;;9.68;2.17;;;;;;;;;;4981790;28;20088;-65
2023/10/06 11:33:02;;;;;;;15.82;2.78;;;;;;;;;;4999381;28;20053;-66
2023/10/06 11:35:29;;;;;;;13.82;2.25;;;;;;;;;;4996733;28;20058;-65
2023/10/06 11:37:57;;;;;;;10.98;2.30;;;;;;;;;;4996599;28;20069;-66
2023/10/06 11:40:25;;;;;;;15.68;2.80;;;;;;;;;;4996859;28;20596;-65
2023/10/06 11:42:53;;;;;;;15.55;2.45;;;;;;;;;;5000797;28;20053;-66
2023/10/06 11:45:27;;;;;;;9.73;2.15;;;;;;;;;;4977489;28;20145;-65
2023/10/06 11:47:55;;;;;;;8.73;2.22;;;;;;;;;;4998906;28;20054;-66
2023/10/06 11:50:23;;;;;;;10.20;2.72;;;;;;;;;;4999255;28;20046;-65
2023/10/06 11:52:51;;;;;;;9.68;2.38;;;;;;;;;;5000636;28;20097;-65
2023/10/06 11:55:23;;;;;;;12.98;3.05;;;;;;;;;;4997604;28;20087;-66
2023/10/06 11:57:51;;;;;;;16.87;2.07;;;;;;;;;;4998854;28;20054;-66
2023/10/06 12:00:19;;;;;;;12.75;2.65;;;;;;;;;;4992513;28;20413;-65
2023/10/06 12:02:50;;;;;;;11.90;1.95;;;;;;;;;;4994649;28;20042;-65
2023/10/06 12:05:18;;;;;;;16.27;2.35;;;;;;;;;;4995042;28;20057;-66
2023/10/06 12:07:46;;;;;;;13.32;2.70;;;;;;;;;;4998938;28;20148;-65
2023/10/06 12:10:17;;;;;;;10.50;2.75;;;;;;;;;;5000312;28;20085;-66
2023/10/06 12:12:45;;;;;;;16.08;2.53;;;;;;;;;;4992147;28;20104;-65
2023/10/06 12:15:14;;;;;;;13.77;1.88;;;;;;;;;;4983069;28;20434;-65
2023/10/06 12:17:41;;;;;;;15.10;2.47;;;;;;;;;;5000115;28;20489;-65
2023/10/06 12:20:13;;;;;;;10.05;2.08;;;;;;;;;;4996722;28;20087;-65
2023/10/06 12:22:42;;;;;;;11.65;2.65;;;;;;;;;;4991376;28;20054;-65
2023/10/06 12:25:11;;;;;;;8.68;1.98;;;;;;;;;;4997936;28;20050;-64
2023/10/06 12:27:38;;;;;;;16.65;2.80;;;;;;;;;;4981494;28;20049;-64
2023/10/06 12:30:08;;;;;;;11.63;2.80;;;;;;;;;;4996952;28;20133;-66
2023/10/06 12:32:35;;;;;;;16.52;2.28;;;;;;;;;;4983212;28;20416;-65
2023/10/06 12:35:06;;;;;;;9.23;1.95;;;;;;;;;;4982814;28;20054;-65
2023/10/06 12:37:40;;;;;;;11.07;1.92;;;;;;;;;;4988177;28;20109;-65
2023/10/06 12:40:09;;;;;;;12.82;2.50;;;;;;;;;;4989537;28;20144;-64
2023/10/06 12:42:38;;;;;;;12.65;2.03;;;;;;;;;;4990395;28;20046;-66
2023/10/06 12:45:07;;;;;;;23.95;2.60;;;;;;;;;;4972516;28;20457;-65
2023/10/06 12:47:34;;;;;;;12.63;2.55;;;;;;;;;;4994979;28;20053;-65
2023/10/06 12:50:05;;;;;;;15.25;2.63;;;;;;;;;;4997538;28;20467;-65
2023/10/06 12:52:34;;;;;;;10.32;2.25;;;;;;;;;;4991213;28;20055;-65
2023/10/06 12:55:05;;;;;;;11.88;2.15;;;;;;;;;;4991854;28;20088;-64
2023/10/06 12:57:34;;;;;;;15.45;2.90;;;;;;;;;;4995655;28;20081;-64
2023/10/06 13:00:02;;;;;;;10.73;1.95;;;;;;;;;;4993488;28;20104;-66
2023/10/06 13:02:31;;;;;;;12.95;2.90;;;;;;;;;;4996429;28;20050;-65
2023/10/06 13:05:04;;;;;;;15.35;2.30;;;;;;;;;;4991998;28;20104;-65
2023/10/06 13:07:33;;;;;;;20.98;3.22;;;;;;;;;;4991788;28;20576;-66
2023/10/06 13:10:02;;;;;;;12.05;2.40;;;;;;;;;;4992363;28;20502;-64
2023/10/06 13:12:31;;;;;;;11.70;2.20;;;;;;;;;;4994660;28;20050;-65
2023/10/06 13:14:59;;;;;;;15.80;2.38;;;;;;;;;;4995188;28;20069;-64
2023/10/06 13:17:28;;;;;;;22.08;2.70;;;;;;;;;;4992867;28;20118;-65
2023/10/06 13:19:55;;;;;;;15.70;2.53;;;;;;;;;;4992051;28;20461;-66
2023/10/06 13:22:27;;;;;;;23.33;3.10;;;;;;;;;;4992003;28;20116;-65
2023/10/06 13:24:54;;;;;;;12.68;2.40;;;;;;;;;;4986411;28;20054;-64
2023/10/06 13:27:23;;;;;;;14.43;3.13;;;;;;;;;;4992359;28;20054;-65
2023/10/06 13:29:53;;;;;;;13.30;2.10;;;;;;;;;;4992574;28;20065;-66
2023/10/06 13:32:21;;;;;;;13.20;2.20;;;;;;;;;;4980223;28;20062;-65
2023/10/06 13:34:48;;;;;;;15.00;2.92;;;;;;;;;;4995697;28;20069;-64
2023/10/06 13:37:15;;;;;;;18.25;2.60;;;;;;;;;;4994412;28;20050;-64
2023/10/06 13:39:44;;;;;;;12.93;2.45;;;;;;;;;;4994614;28;20050;-68
2023/10/06 13:42:15;;;;;;;10.23;2.33;;;;;;;;;;4971713;28;20053;-65
2023/10/06 13:44:43;;;;;;;15.98;2.70;;;;;;;;;;4992973;28;20046;-65
2023/10/06 13:47:12;;;;;;;15.68;2.97;;;;;;;;;;4997330;28;20058;-65
2023/10/06 13:49:40;;;;;;;14.52;2.22;;;;;;;;;;4993125;28;20054;-68
2023/10/06 13:52:10;;;;;;;15.38;2.70;;;;;;;;;;4991628;28;20046;-65
2023/10/06 13:54:37;;;;;;;15.80;2.58;;;;;;;;;;4994703;28;20489;-67
2023/10/06 13:57:06;;;;;;;14.60;2.60;;;;;;;;;;4996621;28;20065;-65
2023/10/06 13:59:35;;;;;;;13.65;2.40;;;;;;;;;;4993960;28;20058;-64
2023/10/06 14:02:03;;;;;;;12.82;2.55;;;;;;;;;;4973186;28;20098;-65
2023/10/06 14:04:31;;;;;;;14.27;2.20;;;;;;;;;;4991732;28;20490;-66
2023/10/06 14:06:59;;;;;;;13.38;2.65;;;;;;;;;;4989128;28;20042;-66
2023/10/06 14:09:29;;;;;;;14.77;2.80;;;;;;;;;;4991793;28;20401;-65
2023/10/06 14:11:56;;;;;;;13.40;2.67;;;;;;;;;;4995787;28;20576;-65
2023/10/06 14:14:54;;;;;;;14.88;2.72;;;;;;;;;;4995523;28;20056;-67
2023/10/06 14:17:28;;;;;;;15.25;2.42;;;;;;;;;;4995683;28;20434;-65
2023/10/06 14:19:57;;;;;;;13.55;2.75;;;;;;;;;;4986842;28;20165;-65
2023/10/06 14:22:30;;;;;;;16.83;2.40;;;;;;;;;;4996195;28;20046;-66
2023/10/06 14:24:58;;;;;;;16.17;2.97;;;;;;;;;;5001008;28;20050;-64
2023/10/06 14:27:27;;;;;;;11.20;2.50;;;;;;;;;;4991190;28;20046;-65
2023/10/06 14:29:54;;;;;;;15.60;2.47;;;;;;;;;;4973444;28;20050;-65
2023/10/06 14:32:38;;;;;;;10.02;2.20;;;;;;;;;;4991116;28;20054;-65
2023/10/06 14:35:23;;;;;;;14.02;2.08;;;;;;;;;;4987897;28;20081;-68
2023/10/06 14:38:14;;;;;;;19.42;2.90;;;;;;;;;;4988679;28;20046;-65
2023/10/06 14:46:11;;;;;;;11.27;2.00;;;;;;;;;;4989075;28;20125;-65
2023/10/06 14:48:43;;;;;;;19.23;2.78;;;;;;;;;;4986474;28;20042;-66
2023/10/06 14:51:12;;;;;;;17.92;3.20;;;;;;;;;;4995801;28;20066;-66
2023/10/06 14:53:39;;;;;;;15.95;2.95;;;;;;;;;;4991266;28;20049;-66